sensor_id;sensor_type;location;lat;lon;timestamp;P1;durP1;ratioP1;P2;durP2;ratioP2
26181;SDS011;13927;51.534;11.866;2022-10-26T00:00:47;7.28;;;4.32;;
26181;SDS011;13927;51.534;11.866;2022-10-26T00:03:14;7.15;;;5.40;;
26181;SDS011;13927;51.534;11.866;2022-10-26T00:05:40;5.72;;;4.43;;
26181;SDS011;13927;51.534;11.866;2022-10-26T00:08:07;8.02;;;4.97;;
26181;SDS011;13927;51.534;11.866;2022-10-26T00:10:34;7.90;;;5.72;;
26181;SDS011;13927;51.534;11.866;2022-10-26T00:13:01;5.60;;;4.93;;
26181;SDS011;13927;51.534;11.866;2022-10-26T00:15:28;7.80;;;5.47;;
26181;SDS011;13927;51.534;11.866;2022-10-26T00:17:54;7.28;;;5.60;;
26181;SDS011;13927;51.534;11.866;2022-10-26T00:20:19;7.03;;;4.78;;
26181;SDS011;13927;51.534;11.866;2022-10-26T00:22:45;6.07;;;4.53;;
26181;SDS011;13927;51.534;11.866;2022-10-26T00:25:11;8.63;;;5.72;;
26181;SDS011;13927;51.534;11.866;2022-10-26T00:27:36;7.40;;;4.88;;
26181;SDS011;13927;51.534;11.866;2022-10-26T00:30:03;9.27;;;5.72;;
26181;SDS011;13927;51.534;11.866;2022-10-26T00:32:30;6.20;;;4.70;;
26181;SDS011;13927;51.534;11.866;2022-10-26T00:34:56;7.68;;;4.93;;
26181;SDS011;13927;51.534;11.866;2022-10-26T00:37:22;7.78;;;5.25;;
26181;SDS011;13927;51.534;11.866;2022-10-26T00:39:48;5.75;;;5.13;;
26181;SDS011;13927;51.534;11.866;2022-10-26T00:42:15;8.15;;;5.25;;
26181;SDS011;13927;51.534;11.866;2022-10-26T00:47:17;8.95;;;5.63;;
26181;SDS011;13927;51.534;11.866;2022-10-26T00:49:53;6.40;;;5.65;;
26181;SDS011;13927;51.534;11.866;2022-10-26T00:52:22;7.57;;;5.55;;
26181;SDS011;13927;51.534;11.866;2022-10-26T00:54:49;8.80;;;5.43;;
26181;SDS011;13927;51.534;11.866;2022-10-26T00:57:17;11.95;;;6.93;;
26181;SDS011;13927;51.534;11.866;2022-10-26T00:59:43;8.27;;;6.53;;
26181;SDS011;13927;51.534;11.866;2022-10-26T01:02:10;6.78;;;5.18;;
26181;SDS011;13927;51.534;11.866;2022-10-26T01:04:36;7.47;;;5.50;;
26181;SDS011;13927;51.534;11.866;2022-10-26T01:07:03;12.77;;;6.35;;
26181;SDS011;13927;51.534;11.866;2022-10-26T01:09:30;8.20;;;6.50;;
26181;SDS011;13927;51.534;11.866;2022-10-26T01:11:57;10.00;;;7.82;;
26181;SDS011;13927;51.534;11.866;2022-10-26T01:14:23;9.88;;;7.22;;
26181;SDS011;13927;51.534;11.866;2022-10-26T01:20:18;7.30;;;5.30;;
26181;SDS011;13927;51.534;11.866;2022-10-26T01:35:59;6.63;;;5.38;;
26181;SDS011;13927;51.534;11.866;2022-10-26T01:38:50;7.47;;;5.70;;
26181;SDS011;13927;51.534;11.866;2022-10-26T01:41:30;9.15;;;6.15;;
26181;SDS011;13927;51.534;11.866;2022-10-26T01:44:03;9.70;;;6.45;;
26181;SDS011;13927;51.534;11.866;2022-10-26T01:46:37;6.20;;;5.50;;
26181;SDS011;13927;51.534;11.866;2022-10-26T01:49:09;8.05;;;6.50;;
26181;SDS011;13927;51.534;11.866;2022-10-26T01:51:38;9.60;;;5.88;;
26181;SDS011;13927;51.534;11.866;2022-10-26T01:54:07;9.02;;;6.25;;
26181;SDS011;13927;51.534;11.866;2022-10-26T01:56:40;10.98;;;6.88;;
26181;SDS011;13927;51.534;11.866;2022-10-26T01:59:29;8.60;;;6.70;;
26181;SDS011;13927;51.534;11.866;2022-10-26T02:05:30;7.28;;;5.95;;
26181;SDS011;13927;51.534;11.866;2022-10-26T02:13:47;11.70;;;6.47;;
26181;SDS011;13927;51.534;11.866;2022-10-26T02:16:27;9.35;;;7.07;;
26181;SDS011;13927;51.534;11.866;2022-10-26T02:22:13;17.83;;;11.32;;
26181;SDS011;13927;51.534;11.866;2022-10-26T02:24:54;36.53;;;15.85;;
26181;SDS011;13927;51.534;11.866;2022-10-26T02:27:27;20.65;;;13.93;;
26181;SDS011;13927;51.534;11.866;2022-10-26T02:29:59;16.13;;;10.93;;
26181;SDS011;13927;51.534;11.866;2022-10-26T02:32:28;10.00;;;8.05;;
26181;SDS011;13927;51.534;11.866;2022-10-26T02:34:58;9.82;;;7.20;;
26181;SDS011;13927;51.534;11.866;2022-10-26T02:37:27;10.07;;;6.55;;
26181;SDS011;13927;51.534;11.866;2022-10-26T02:39:56;13.23;;;5.80;;
26181;SDS011;13927;51.534;11.866;2022-10-26T02:42:24;9.60;;;7.15;;
26181;SDS011;13927;51.534;11.866;2022-10-26T02:44:55;9.52;;;7.55;;
26181;SDS011;13927;51.534;11.866;2022-10-26T02:47:27;12.07;;;8.40;;
26181;SDS011;13927;51.534;11.866;2022-10-26T02:49:53;10.73;;;8.05;;
26181;SDS011;13927;51.534;11.866;2022-10-26T02:54:59;6.15;;;5.38;;
26181;SDS011;13927;51.534;11.866;2022-10-26T02:57:40;8.35;;;7.15;;
26181;SDS011;13927;51.534;11.866;2022-10-26T03:00:11;13.00;;;8.57;;
26181;SDS011;13927;51.534;11.866;2022-10-26T03:02:43;13.43;;;8.60;;
26181;SDS011;13927;51.534;11.866;2022-10-26T03:07:49;11.55;;;8.43;;
26181;SDS011;13927;51.534;11.866;2022-10-26T03:10:14;12.60;;;6.90;;
26181;SDS011;13927;51.534;11.866;2022-10-26T03:12:40;9.60;;;7.35;;
26181;SDS011;13927;51.534;11.866;2022-10-26T03:15:06;10.43;;;7.18;;
26181;SDS011;13927;51.534;11.866;2022-10-26T03:17:32;9.25;;;6.88;;
26181;SDS011;13927;51.534;11.866;2022-10-26T03:19:58;8.43;;;6.97;;
26181;SDS011;13927;51.534;11.866;2022-10-26T03:22:24;8.63;;;7.10;;
26181;SDS011;13927;51.534;11.866;2022-10-26T03:24:49;8.70;;;7.07;;
26181;SDS011;13927;51.534;11.866;2022-10-26T03:27:15;8.55;;;6.38;;
26181;SDS011;13927;51.534;11.866;2022-10-26T03:29:41;8.90;;;7.53;;
26181;SDS011;13927;51.534;11.866;2022-10-26T03:32:07;9.45;;;7.53;;
26181;SDS011;13927;51.534;11.866;2022-10-26T03:34:32;8.15;;;6.22;;
26181;SDS011;13927;51.534;11.866;2022-10-26T03:36:58;10.95;;;7.25;;
26181;SDS011;13927;51.534;11.866;2022-10-26T03:39:25;7.32;;;6.45;;
26181;SDS011;13927;51.534;11.866;2022-10-26T03:41:51;8.48;;;6.20;;
26181;SDS011;13927;51.534;11.866;2022-10-26T03:44:17;7.70;;;6.75;;
26181;SDS011;13927;51.534;11.866;2022-10-26T03:46:43;9.88;;;7.72;;
26181;SDS011;13927;51.534;11.866;2022-10-26T03:49:08;9.57;;;7.70;;
26181;SDS011;13927;51.534;11.866;2022-10-26T03:51:34;9.68;;;8.27;;
26181;SDS011;13927;51.534;11.866;2022-10-26T03:54:00;10.18;;;7.38;;
26181;SDS011;13927;51.534;11.866;2022-10-26T03:56:25;9.77;;;7.60;;
26181;SDS011;13927;51.534;11.866;2022-10-26T03:58:51;7.53;;;6.72;;
26181;SDS011;13927;51.534;11.866;2022-10-26T04:01:17;10.02;;;7.32;;
26181;SDS011;13927;51.534;11.866;2022-10-26T04:03:43;9.60;;;6.95;;
26181;SDS011;13927;51.534;11.866;2022-10-26T04:06:08;8.25;;;6.80;;
26181;SDS011;13927;51.534;11.866;2022-10-26T04:08:34;7.80;;;6.45;;
26181;SDS011;13927;51.534;11.866;2022-10-26T04:11:00;10.73;;;8.07;;
26181;SDS011;13927;51.534;11.866;2022-10-26T04:13:26;10.75;;;8.60;;
26181;SDS011;13927;51.534;11.866;2022-10-26T04:15:52;17.02;;;9.77;;
26181;SDS011;13927;51.534;11.866;2022-10-26T04:18:17;12.27;;;7.32;;
26181;SDS011;13927;51.534;11.866;2022-10-26T04:20:43;10.13;;;6.85;;
26181;SDS011;13927;51.534;11.866;2022-10-26T04:23:12;16.75;;;7.80;;
26181;SDS011;13927;51.534;11.866;2022-10-26T04:25:40;12.98;;;7.95;;
26181;SDS011;13927;51.534;11.866;2022-10-26T04:28:08;9.10;;;6.95;;
26181;SDS011;13927;51.534;11.866;2022-10-26T04:30:35;10.70;;;7.95;;
26181;SDS011;13927;51.534;11.866;2022-10-26T04:33:02;7.55;;;6.13;;
26181;SDS011;13927;51.534;11.866;2022-10-26T04:35:28;7.60;;;6.72;;
26181;SDS011;13927;51.534;11.866;2022-10-26T04:37:58;8.48;;;6.20;;
26181;SDS011;13927;51.534;11.866;2022-10-26T04:40:27;108.75;;;14.93;;
26181;SDS011;13927;51.534;11.866;2022-10-26T04:42:54;11.35;;;6.03;;
26181;SDS011;13927;51.534;11.866;2022-10-26T04:45:20;10.55;;;6.88;;
26181;SDS011;13927;51.534;11.866;2022-10-26T04:47:46;8.13;;;6.28;;
26181;SDS011;13927;51.534;11.866;2022-10-26T04:50:12;9.52;;;7.82;;
26181;SDS011;13927;51.534;11.866;2022-10-26T04:52:38;8.32;;;6.63;;
26181;SDS011;13927;51.534;11.866;2022-10-26T04:55:05;10.70;;;7.82;;
26181;SDS011;13927;51.534;11.866;2022-10-26T04:57:32;8.93;;;7.18;;
26181;SDS011;13927;51.534;11.866;2022-10-26T04:59:58;11.18;;;8.38;;
26181;SDS011;13927;51.534;11.866;2022-10-26T05:02:25;9.20;;;7.53;;
26181;SDS011;13927;51.534;11.866;2022-10-26T05:04:53;10.55;;;8.43;;
26181;SDS011;13927;51.534;11.866;2022-10-26T05:07:19;9.90;;;7.00;;
26181;SDS011;13927;51.534;11.866;2022-10-26T05:09:45;10.57;;;8.25;;
26181;SDS011;13927;51.534;11.866;2022-10-26T05:12:11;9.85;;;8.43;;
26181;SDS011;13927;51.534;11.866;2022-10-26T05:14:37;14.18;;;9.57;;
26181;SDS011;13927;51.534;11.866;2022-10-26T05:17:02;10.75;;;8.48;;
26181;SDS011;13927;51.534;11.866;2022-10-26T05:19:28;9.57;;;7.93;;
26181;SDS011;13927;51.534;11.866;2022-10-26T05:21:54;12.05;;;8.63;;
26181;SDS011;13927;51.534;11.866;2022-10-26T05:24:20;9.27;;;7.38;;
26181;SDS011;13927;51.534;11.866;2022-10-26T05:26:45;10.35;;;8.25;;
26181;SDS011;13927;51.534;11.866;2022-10-26T05:29:11;10.40;;;8.18;;
26181;SDS011;13927;51.534;11.866;2022-10-26T05:31:37;9.02;;;7.45;;
26181;SDS011;13927;51.534;11.866;2022-10-26T05:34:03;10.35;;;7.68;;
26181;SDS011;13927;51.534;11.866;2022-10-26T05:36:28;15.02;;;7.78;;
26181;SDS011;13927;51.534;11.866;2022-10-26T05:38:57;9.85;;;7.90;;
26181;SDS011;13927;51.534;11.866;2022-10-26T05:41:24;10.07;;;8.23;;
26181;SDS011;13927;51.534;11.866;2022-10-26T05:43:50;10.75;;;6.85;;
26181;SDS011;13927;51.534;11.866;2022-10-26T05:46:15;9.50;;;6.93;;
26181;SDS011;13927;51.534;11.866;2022-10-26T05:48:41;9.68;;;6.88;;
26181;SDS011;13927;51.534;11.866;2022-10-26T05:51:07;7.80;;;6.75;;
26181;SDS011;13927;51.534;11.866;2022-10-26T05:53:33;11.15;;;7.15;;
26181;SDS011;13927;51.534;11.866;2022-10-26T05:55:58;11.98;;;7.90;;
26181;SDS011;13927;51.534;11.866;2022-10-26T05:58:25;8.18;;;6.82;;
26181;SDS011;13927;51.534;11.866;2022-10-26T06:01:15;10.95;;;7.85;;
26181;SDS011;13927;51.534;11.866;2022-10-26T06:06:46;8.75;;;6.90;;
26181;SDS011;13927;51.534;11.866;2022-10-26T06:09:18;16.38;;;7.50;;
26181;SDS011;13927;51.534;11.866;2022-10-26T06:11:44;10.60;;;7.57;;
26181;SDS011;13927;51.534;11.866;2022-10-26T06:14:11;8.18;;;7.20;;
26181;SDS011;13927;51.534;11.866;2022-10-26T06:16:40;13.15;;;7.90;;
26181;SDS011;13927;51.534;11.866;2022-10-26T06:23:25;13.95;;;7.90;;
26181;SDS011;13927;51.534;11.866;2022-10-26T06:31:32;9.23;;;6.85;;
26181;SDS011;13927;51.534;11.866;2022-10-26T06:33:58;10.85;;;7.78;;
26181;SDS011;13927;51.534;11.866;2022-10-26T06:36:25;9.32;;;7.00;;
26181;SDS011;13927;51.534;11.866;2022-10-26T06:38:54;9.27;;;7.03;;
26181;SDS011;13927;51.534;11.866;2022-10-26T06:41:40;9.55;;;7.20;;
26181;SDS011;13927;51.534;11.866;2022-10-26T06:44:07;11.65;;;6.93;;
26181;SDS011;13927;51.534;11.866;2022-10-26T06:46:44;10.00;;;6.70;;
26181;SDS011;13927;51.534;11.866;2022-10-26T06:49:26;10.57;;;7.70;;
26181;SDS011;13927;51.534;11.866;2022-10-26T06:52:35;10.32;;;6.65;;
26181;SDS011;13927;51.534;11.866;2022-10-26T06:55:18;8.00;;;6.63;;
26181;SDS011;13927;51.534;11.866;2022-10-26T06:57:44;13.75;;;8.18;;
26181;SDS011;13927;51.534;11.866;2022-10-26T07:00:14;9.55;;;7.80;;
26181;SDS011;13927;51.534;11.866;2022-10-26T07:02:45;10.27;;;8.63;;
26181;SDS011;13927;51.534;11.866;2022-10-26T07:05:14;11.30;;;7.80;;
26181;SDS011;13927;51.534;11.866;2022-10-26T07:07:44;9.02;;;7.50;;
26181;SDS011;13927;51.534;11.866;2022-10-26T07:10:13;11.18;;;8.32;;
26181;SDS011;13927;51.534;11.866;2022-10-26T07:12:39;10.35;;;7.78;;
26181;SDS011;13927;51.534;11.866;2022-10-26T07:15:05;10.05;;;8.10;;
26181;SDS011;13927;51.534;11.866;2022-10-26T07:17:45;11.38;;;8.40;;
26181;SDS011;13927;51.534;11.866;2022-10-26T07:20:13;10.30;;;7.70;;
26181;SDS011;13927;51.534;11.866;2022-10-26T07:22:42;10.02;;;8.90;;
26181;SDS011;13927;51.534;11.866;2022-10-26T07:25:08;10.82;;;8.13;;
26181;SDS011;13927;51.534;11.866;2022-10-26T07:27:34;10.82;;;7.30;;
26181;SDS011;13927;51.534;11.866;2022-10-26T07:30:00;10.27;;;8.00;;
26181;SDS011;13927;51.534;11.866;2022-10-26T07:32:26;9.75;;;8.77;;
26181;SDS011;13927;51.534;11.866;2022-10-26T07:34:52;14.02;;;9.65;;
26181;SDS011;13927;51.534;11.866;2022-10-26T07:37:18;12.55;;;9.40;;
26181;SDS011;13927;51.534;11.866;2022-10-26T07:39:44;16.17;;;9.20;;
26181;SDS011;13927;51.534;11.866;2022-10-26T07:42:10;9.45;;;8.40;;
26181;SDS011;13927;51.534;11.866;2022-10-26T07:44:35;11.95;;;8.13;;
26181;SDS011;13927;51.534;11.866;2022-10-26T07:47:01;9.20;;;7.40;;
26181;SDS011;13927;51.534;11.866;2022-10-26T07:49:27;10.18;;;7.70;;
26181;SDS011;13927;51.534;11.866;2022-10-26T07:51:53;11.75;;;9.10;;
26181;SDS011;13927;51.534;11.866;2022-10-26T07:54:19;10.50;;;7.38;;
26181;SDS011;13927;51.534;11.866;2022-10-26T07:56:47;8.63;;;7.22;;
26181;SDS011;13927;51.534;11.866;2022-10-26T07:59:14;10.15;;;8.18;;
26181;SDS011;13927;51.534;11.866;2022-10-26T08:01:41;14.20;;;8.60;;
26181;SDS011;13927;51.534;11.866;2022-10-26T08:04:07;10.05;;;8.55;;
26181;SDS011;13927;51.534;11.866;2022-10-26T08:06:33;13.07;;;8.82;;
26181;SDS011;13927;51.534;11.866;2022-10-26T08:08:59;12.57;;;7.78;;
26181;SDS011;13927;51.534;11.866;2022-10-26T08:11:26;10.05;;;8.48;;
26181;SDS011;13927;51.534;11.866;2022-10-26T08:13:52;10.07;;;7.53;;
26181;SDS011;13927;51.534;11.866;2022-10-26T08:16:19;9.60;;;7.07;;
26181;SDS011;13927;51.534;11.866;2022-10-26T08:18:47;8.98;;;6.93;;
26181;SDS011;13927;51.534;11.866;2022-10-26T08:21:17;12.35;;;7.32;;
26181;SDS011;13927;51.534;11.866;2022-10-26T08:23:43;7.30;;;5.70;;
26181;SDS011;13927;51.534;11.866;2022-10-26T08:26:09;9.70;;;6.88;;
26181;SDS011;13927;51.534;11.866;2022-10-26T08:28:37;11.00;;;6.30;;
26181;SDS011;13927;51.534;11.866;2022-10-26T08:31:04;7.85;;;6.28;;
26181;SDS011;13927;51.534;11.866;2022-10-26T08:33:31;12.20;;;6.95;;
26181;SDS011;13927;51.534;11.866;2022-10-26T08:35:58;9.25;;;6.35;;
26181;SDS011;13927;51.534;11.866;2022-10-26T08:38:26;11.98;;;9.55;;
26181;SDS011;13927;51.534;11.866;2022-10-26T08:40:53;13.88;;;10.38;;
26181;SDS011;13927;51.534;11.866;2022-10-26T08:45:56;13.45;;;10.35;;
26181;SDS011;13927;51.534;11.866;2022-10-26T08:48:51;12.25;;;9.52;;
26181;SDS011;13927;51.534;11.866;2022-10-26T08:51:25;12.55;;;9.07;;
26181;SDS011;13927;51.534;11.866;2022-10-26T08:54:08;13.32;;;10.77;;
26181;SDS011;13927;51.534;11.866;2022-10-26T08:56:46;15.30;;;11.13;;
26181;SDS011;13927;51.534;11.866;2022-10-26T08:59:34;13.00;;;10.80;;
26181;SDS011;13927;51.534;11.866;2022-10-26T09:02:14;10.98;;;9.88;;
26181;SDS011;13927;51.534;11.866;2022-10-26T09:04:42;11.90;;;9.18;;
26181;SDS011;13927;51.534;11.866;2022-10-26T09:09:52;14.57;;;11.77;;
26181;SDS011;13927;51.534;11.866;2022-10-26T09:12:53;20.08;;;9.40;;
26181;SDS011;13927;51.534;11.866;2022-10-26T09:19:01;9.15;;;7.22;;
26181;SDS011;13927;51.534;11.866;2022-10-26T09:25:15;10.23;;;7.80;;
26181;SDS011;13927;51.534;11.866;2022-10-26T09:27:48;9.20;;;6.07;;
26181;SDS011;13927;51.534;11.866;2022-10-26T09:30:23;8.00;;;6.40;;
26181;SDS011;13927;51.534;11.866;2022-10-26T09:32:59;9.65;;;6.75;;
26181;SDS011;13927;51.534;11.866;2022-10-26T09:35:52;10.60;;;6.13;;
26181;SDS011;13927;51.534;11.866;2022-10-26T09:38:32;8.47;;;5.60;;
26181;SDS011;13927;51.534;11.866;2022-10-26T09:43:52;8.55;;;6.25;;
26181;SDS011;13927;51.534;11.866;2022-10-26T09:49:32;8.70;;;5.30;;
26181;SDS011;13927;51.534;11.866;2022-10-26T09:52:13;9.63;;;5.03;;
26181;SDS011;13927;51.534;11.866;2022-10-26T09:54:40;6.95;;;5.07;;
26181;SDS011;13927;51.534;11.866;2022-10-26T09:57:07;6.90;;;4.28;;
26181;SDS011;13927;51.534;11.866;2022-10-26T09:59:34;5.97;;;4.57;;
26181;SDS011;13927;51.534;11.866;2022-10-26T10:04:58;4.68;;;3.83;;
26181;SDS011;13927;51.534;11.866;2022-10-26T10:07:24;5.45;;;4.07;;
26181;SDS011;13927;51.534;11.866;2022-10-26T10:10:06;5.38;;;3.50;;
26181;SDS011;13927;51.534;11.866;2022-10-26T10:12:40;4.88;;;3.58;;
26181;SDS011;13927;51.534;11.866;2022-10-26T10:15:15;6.05;;;3.20;;
26181;SDS011;13927;51.534;11.866;2022-10-26T10:17:51;7.43;;;3.33;;
26181;SDS011;13927;51.534;11.866;2022-10-26T10:20:31;4.93;;;2.83;;
26181;SDS011;13927;51.534;11.866;2022-10-26T10:22:58;7.07;;;3.53;;
26181;SDS011;13927;51.534;11.866;2022-10-26T10:28:00;4.38;;;3.00;;
26181;SDS011;13927;51.534;11.866;2022-10-26T10:30:32;4.73;;;3.00;;
26181;SDS011;13927;51.534;11.866;2022-10-26T10:33:05;7.65;;;3.50;;
26181;SDS011;13927;51.534;11.866;2022-10-26T10:35:35;7.05;;;3.03;;
26181;SDS011;13927;51.534;11.866;2022-10-26T10:38:14;6.45;;;3.20;;
26181;SDS011;13927;51.534;11.866;2022-10-26T10:44:17;8.40;;;2.55;;
26181;SDS011;13927;51.534;11.866;2022-10-26T10:46:47;5.68;;;2.45;;
26181;SDS011;13927;51.534;11.866;2022-10-26T10:49:17;3.85;;;2.08;;
26181;SDS011;13927;51.534;11.866;2022-10-26T10:51:49;3.63;;;2.08;;
26181;SDS011;13927;51.534;11.866;2022-10-26T10:54:37;6.93;;;2.75;;
26181;SDS011;13927;51.534;11.866;2022-10-26T10:57:10;4.80;;;2.17;;
26181;SDS011;13927;51.534;11.866;2022-10-26T11:00:13;6.78;;;2.80;;
26181;SDS011;13927;51.534;11.866;2022-10-26T11:12:00;8.75;;;2.67;;
26181;SDS011;13927;51.534;11.866;2022-10-26T11:14:08;7.90;;;3.67;;
26181;SDS011;13927;51.534;11.866;2022-10-26T11:16:42;3.83;;;2.75;;
26181;SDS011;13927;51.534;11.866;2022-10-26T11:21:57;4.57;;;2.97;;
26181;SDS011;13927;51.534;11.866;2022-10-26T11:27:27;7.18;;;3.05;;
26181;SDS011;13927;51.534;11.866;2022-10-26T11:30:05;8.80;;;3.50;;
26181;SDS011;13927;51.534;11.866;2022-10-26T11:32:43;9.85;;;3.42;;
26181;SDS011;13927;51.534;11.866;2022-10-26T11:35:27;6.15;;;3.33;;
26181;SDS011;13927;51.534;11.866;2022-10-26T11:43:40;5.65;;;2.80;;
26181;SDS011;13927;51.534;11.866;2022-10-26T11:46:29;4.72;;;2.92;;
26181;SDS011;13927;51.534;11.866;2022-10-26T11:51:48;6.78;;;3.10;;
26181;SDS011;13927;51.534;11.866;2022-10-26T11:57:02;7.72;;;3.20;;
26181;SDS011;13927;51.534;11.866;2022-10-26T11:59:30;6.50;;;3.05;;
26181;SDS011;13927;51.534;11.866;2022-10-26T12:02:17;5.15;;;2.90;;
26181;SDS011;13927;51.534;11.866;2022-10-26T12:04:51;4.80;;;2.50;;
26181;SDS011;13927;51.534;11.866;2022-10-26T12:07:43;3.20;;;2.28;;
26181;SDS011;13927;51.534;11.866;2022-10-26T12:10:37;3.95;;;2.40;;
26181;SDS011;13927;51.534;11.866;2022-10-26T12:13:26;3.60;;;2.17;;
26181;SDS011;13927;51.534;11.866;2022-10-26T12:22:19;7.53;;;2.33;;
26181;SDS011;13927;51.534;11.866;2022-10-26T12:27:53;3.25;;;2.10;;
26181;SDS011;13927;51.534;11.866;2022-10-26T12:38:00;5.03;;;2.15;;
26181;SDS011;13927;51.534;11.866;2022-10-26T12:40:46;4.78;;;2.15;;
26181;SDS011;13927;51.534;11.866;2022-10-26T12:45:41;4.60;;;2.80;;
26181;SDS011;13927;51.534;11.866;2022-10-26T12:51:38;8.98;;;2.70;;
26181;SDS011;13927;51.534;11.866;2022-10-26T13:08:07;4.22;;;2.30;;
26181;SDS011;13927;51.534;11.866;2022-10-26T13:10:36;5.40;;;2.63;;
26181;SDS011;13927;51.534;11.866;2022-10-26T13:13:06;6.18;;;2.72;;
26181;SDS011;13927;51.534;11.866;2022-10-26T13:15:40;4.03;;;2.08;;
26181;SDS011;13927;51.534;11.866;2022-10-26T13:18:19;2.75;;;2.15;;
26181;SDS011;13927;51.534;11.866;2022-10-26T13:20:51;6.13;;;2.53;;
26181;SDS011;13927;51.534;11.866;2022-10-26T13:23:28;3.47;;;2.25;;
26181;SDS011;13927;51.534;11.866;2022-10-26T13:28:32;4.95;;;3.03;;
26181;SDS011;13927;51.534;11.866;2022-10-26T13:31:01;4.30;;;2.25;;
26181;SDS011;13927;51.534;11.866;2022-10-26T13:33:35;4.47;;;2.60;;
26181;SDS011;13927;51.534;11.866;2022-10-26T13:39:08;3.65;;;2.15;;
26181;SDS011;13927;51.534;11.866;2022-10-26T13:41:48;4.68;;;2.60;;
26181;SDS011;13927;51.534;11.866;2022-10-26T13:44:32;4.47;;;2.40;;
26181;SDS011;13927;51.534;11.866;2022-10-26T13:47:10;3.78;;;2.50;;
26181;SDS011;13927;51.534;11.866;2022-10-26T13:49:46;7.68;;;2.78;;
26181;SDS011;13927;51.534;11.866;2022-10-26T13:52:19;6.80;;;2.80;;
26181;SDS011;13927;51.534;11.866;2022-10-26T13:54:54;3.40;;;2.33;;
26181;SDS011;13927;51.534;11.866;2022-10-26T13:57:43;7.65;;;2.80;;
26181;SDS011;13927;51.534;11.866;2022-10-26T14:00:30;5.70;;;2.58;;
26181;SDS011;13927;51.534;11.866;2022-10-26T14:02:56;5.82;;;2.50;;
26181;SDS011;13927;51.534;11.866;2022-10-26T14:05:22;4.30;;;2.33;;
26181;SDS011;13927;51.534;11.866;2022-10-26T14:07:55;5.10;;;2.55;;
26181;SDS011;13927;51.534;11.866;2022-10-26T14:10:39;4.32;;;2.47;;
26181;SDS011;13927;51.534;11.866;2022-10-26T14:13:12;4.20;;;2.42;;
26181;SDS011;13927;51.534;11.866;2022-10-26T14:15:42;3.45;;;2.03;;
26181;SDS011;13927;51.534;11.866;2022-10-26T14:18:14;4.18;;;2.03;;
26181;SDS011;13927;51.534;11.866;2022-10-26T14:23:26;7.80;;;3.03;;
26181;SDS011;13927;51.534;11.866;2022-10-26T14:26:26;4.97;;;2.30;;
26181;SDS011;13927;51.534;11.866;2022-10-26T14:29:12;4.32;;;2.90;;
26181;SDS011;13927;51.534;11.866;2022-10-26T14:31:42;4.28;;;1.80;;
26181;SDS011;13927;51.534;11.866;2022-10-26T14:34:08;4.00;;;1.70;;
26181;SDS011;13927;51.534;11.866;2022-10-26T14:39:06;4.20;;;1.90;;
26181;SDS011;13927;51.534;11.866;2022-10-26T14:42:00;5.57;;;1.75;;
26181;SDS011;13927;51.534;11.866;2022-10-26T14:44:51;3.38;;;1.77;;
26181;SDS011;13927;51.534;11.866;2022-10-26T14:47:27;3.60;;;1.88;;
26181;SDS011;13927;51.534;11.866;2022-10-26T14:49:58;4.45;;;1.67;;
26181;SDS011;13927;51.534;11.866;2022-10-26T14:52:26;6.18;;;2.00;;
26181;SDS011;13927;51.534;11.866;2022-10-26T14:57:36;6.32;;;2.35;;
26181;SDS011;13927;51.534;11.866;2022-10-26T15:00:11;3.47;;;1.90;;
26181;SDS011;13927;51.534;11.866;2022-10-26T15:02:39;4.43;;;2.20;;
26181;SDS011;13927;51.534;11.866;2022-10-26T15:07:52;3.80;;;1.73;;
26181;SDS011;13927;51.534;11.866;2022-10-26T15:11:00;4.53;;;2.08;;
26181;SDS011;13927;51.534;11.866;2022-10-26T15:13:14;4.60;;;1.73;;
26181;SDS011;13927;51.534;11.866;2022-10-26T15:15:53;4.38;;;1.77;;
26181;SDS011;13927;51.534;11.866;2022-10-26T15:18:24;4.65;;;1.90;;
26181;SDS011;13927;51.534;11.866;2022-10-26T15:20:52;3.85;;;1.70;;
26181;SDS011;13927;51.534;11.866;2022-10-26T15:23:19;4.15;;;1.70;;
26181;SDS011;13927;51.534;11.866;2022-10-26T15:25:54;5.03;;;1.80;;
26181;SDS011;13927;51.534;11.866;2022-10-26T15:31:07;4.88;;;1.85;;
26181;SDS011;13927;51.534;11.866;2022-10-26T15:36:20;5.43;;;1.95;;
26181;SDS011;13927;51.534;11.866;2022-10-26T15:38:48;4.13;;;2.33;;
26181;SDS011;13927;51.534;11.866;2022-10-26T15:44:02;4.00;;;2.08;;
26181;SDS011;13927;51.534;11.866;2022-10-26T15:46:31;6.22;;;2.10;;
26181;SDS011;13927;51.534;11.866;2022-10-26T15:48:59;3.70;;;1.73;;
26181;SDS011;13927;51.534;11.866;2022-10-26T15:51:28;5.90;;;2.10;;
26181;SDS011;13927;51.534;11.866;2022-10-26T15:53:58;5.65;;;2.47;;
26181;SDS011;13927;51.534;11.866;2022-10-26T15:56:27;3.30;;;2.28;;
26181;SDS011;13927;51.534;11.866;2022-10-26T15:58:54;5.95;;;2.88;;
26181;SDS011;13927;51.534;11.866;2022-10-26T16:01:22;2.97;;;1.90;;
26181;SDS011;13927;51.534;11.866;2022-10-26T16:03:51;3.92;;;2.22;;
26181;SDS011;13927;51.534;11.866;2022-10-26T16:06:27;6.05;;;2.80;;
26181;SDS011;13927;51.534;11.866;2022-10-26T16:09:02;4.65;;;3.38;;
26181;SDS011;13927;51.534;11.866;2022-10-26T16:11:31;8.70;;;3.67;;
26181;SDS011;13927;51.534;11.866;2022-10-26T16:13:57;6.30;;;3.08;;
26181;SDS011;13927;51.534;11.866;2022-10-26T16:16:23;5.88;;;2.88;;
26181;SDS011;13927;51.534;11.866;2022-10-26T16:18:53;6.45;;;2.83;;
26181;SDS011;13927;51.534;11.866;2022-10-26T16:21:21;6.72;;;3.97;;
26181;SDS011;13927;51.534;11.866;2022-10-26T16:23:52;4.88;;;3.63;;
26181;SDS011;13927;51.534;11.866;2022-10-26T16:26:19;7.70;;;4.10;;
26181;SDS011;13927;51.534;11.866;2022-10-26T16:28:46;6.97;;;3.75;;
26181;SDS011;13927;51.534;11.866;2022-10-26T16:31:14;5.22;;;3.70;;
26181;SDS011;13927;51.534;11.866;2022-10-26T16:33:42;5.82;;;3.78;;
26181;SDS011;13927;51.534;11.866;2022-10-26T16:36:09;10.40;;;4.13;;
26181;SDS011;13927;51.534;11.866;2022-10-26T16:38:36;6.93;;;4.22;;
26181;SDS011;13927;51.534;11.866;2022-10-26T16:43:35;5.65;;;3.45;;
26181;SDS011;13927;51.534;11.866;2022-10-26T16:48:34;7.75;;;3.63;;
26181;SDS011;13927;51.534;11.866;2022-10-26T16:51:08;6.18;;;3.85;;
26181;SDS011;13927;51.534;11.866;2022-10-26T16:53:39;4.50;;;3.35;;
26181;SDS011;13927;51.534;11.866;2022-10-26T16:56:06;8.20;;;4.63;;
26181;SDS011;13927;51.534;11.866;2022-10-26T16:58:38;8.60;;;5.82;;
26181;SDS011;13927;51.534;11.866;2022-10-26T17:01:05;11.90;;;7.20;;
26181;SDS011;13927;51.534;11.866;2022-10-26T17:03:32;10.57;;;8.00;;
26181;SDS011;13927;51.534;11.866;2022-10-26T17:05:59;11.93;;;6.60;;
26181;SDS011;13927;51.534;11.866;2022-10-26T17:08:28;10.52;;;6.95;;
26181;SDS011;13927;51.534;11.866;2022-10-26T17:10:57;11.77;;;8.95;;
26181;SDS011;13927;51.534;11.866;2022-10-26T17:13:35;8.32;;;7.30;;
26181;SDS011;13927;51.534;11.866;2022-10-26T17:16:03;10.50;;;7.90;;
26181;SDS011;13927;51.534;11.866;2022-10-26T17:18:32;11.40;;;8.95;;
26181;SDS011;13927;51.534;11.866;2022-10-26T17:20:58;14.75;;;11.07;;
26181;SDS011;13927;51.534;11.866;2022-10-26T17:23:24;16.30;;;12.98;;
26181;SDS011;13927;51.534;11.866;2022-10-26T17:25:50;21.00;;;18.80;;
26181;SDS011;13927;51.534;11.866;2022-10-26T17:28:16;29.33;;;26.00;;
26181;SDS011;13927;51.534;11.866;2022-10-26T17:30:41;23.92;;;20.70;;
26181;SDS011;13927;51.534;11.866;2022-10-26T17:33:08;19.85;;;17.48;;
26181;SDS011;13927;51.534;11.866;2022-10-26T17:35:36;27.48;;;21.63;;
26181;SDS011;13927;51.534;11.866;2022-10-26T17:38:02;30.17;;;25.15;;